sensor_id;sensor_type;location;lat;lon;timestamp;temperature;humidity
2539;DHT22;1280;49.760;9.664;2023-03-09T00:01:33;10.10;86.30
2539;DHT22;1280;49.760;9.664;2023-03-09T00:04:05;10.10;86.30
2539;DHT22;1280;49.760;9.664;2023-03-09T00:06:40;10.10;86.20
2539;DHT22;1280;49.760;9.664;2023-03-09T00:09:12;10.10;86.30
2539;DHT22;1280;49.760;9.664;2023-03-09T00:11:49;10.10;86.30
2539;DHT22;1280;49.760;9.664;2023-03-09T00:14:20;10.10;86.30
2539;DHT22;1280;49.760;9.664;2023-03-09T00:17:07;10.10;86.40
2539;DHT22;1280;49.760;9.664;2023-03-09T00:19:37;10.10;86.40
2539;DHT22;1280;49.760;9.664;2023-03-09T00:22:08;10.10;86.40
2539;DHT22;1280;49.760;9.664;2023-03-09T00:24:43;10.10;86.40
2539;DHT22;1280;49.760;9.664;2023-03-09T00:27:20;10.10;86.40
2539;DHT22;1280;49.760;9.664;2023-03-09T00:29:51;10.20;86.30
2539;DHT22;1280;49.760;9.664;2023-03-09T00:32:33;10.20;86.40
2539;DHT22;1280;49.760;9.664;2023-03-09T00:35:11;10.20;86.50
2539;DHT22;1280;49.760;9.664;2023-03-09T00:37:49;10.20;86.40
2539;DHT22;1280;49.760;9.664;2023-03-09T00:40:23;10.20;86.40
2539;DHT22;1280;49.760;9.664;2023-03-09T00:42:59;10.20;86.40
2539;DHT22;1280;49.760;9.664;2023-03-09T00:45:36;10.20;86.30
2539;DHT22;1280;49.760;9.664;2023-03-09T00:48:26;10.20;86.40
2539;DHT22;1280;49.760;9.664;2023-03-09T00:51:00;10.20;86.40
2539;DHT22;1280;49.760;9.664;2023-03-09T00:53:32;10.30;86.40
2539;DHT22;1280;49.760;9.664;2023-03-09T00:56:03;10.30;86.40
2539;DHT22;1280;49.760;9.664;2023-03-09T00:58:37;10.40;86.20
2539;DHT22;1280;49.760;9.664;2023-03-09T01:01:11;10.40;86.40
2539;DHT22;1280;49.760;9.664;2023-03-09T01:03:53;10.40;86.40
2539;DHT22;1280;49.760;9.664;2023-03-09T01:06:27;10.40;86.40
2539;DHT22;1280;49.760;9.664;2023-03-09T01:09:00;10.40;86.40
2539;DHT22;1280;49.760;9.664;2023-03-09T01:11:44;10.40;86.40
2539;DHT22;1280;49.760;9.664;2023-03-09T01:14:23;10.50;86.30
2539;DHT22;1280;49.760;9.664;2023-03-09T01:16:53;10.50;86.30
2539;DHT22;1280;49.760;9.664;2023-03-09T01:19:30;10.50;86.30
2539;DHT22;1280;49.760;9.664;2023-03-09T01:22:02;10.50;86.30
2539;DHT22;1280;49.760;9.664;2023-03-09T01:24:36;10.40;86.40
2539;DHT22;1280;49.760;9.664;2023-03-09T01:27:10;10.50;86.40
2539;DHT22;1280;49.760;9.664;2023-03-09T01:29:39;10.50;86.30
2539;DHT22;1280;49.760;9.664;2023-03-09T01:32:16;10.50;86.30
2539;DHT22;1280;49.760;9.664;2023-03-09T01:34:49;10.50;86.20
2539;DHT22;1280;49.760;9.664;2023-03-09T01:37:30;10.50;86.10
2539;DHT22;1280;49.760;9.664;2023-03-09T01:40:16;10.50;86.00
2539;DHT22;1280;49.760;9.664;2023-03-09T01:42:55;10.50;86.00
2539;DHT22;1280;49.760;9.664;2023-03-09T01:48:47;10.40;86.20
2539;DHT22;1280;49.760;9.664;2023-03-09T01:51:26;10.40;86.20
2539;DHT22;1280;49.760;9.664;2023-03-09T01:54:04;10.30;86.30
2539;DHT22;1280;49.760;9.664;2023-03-09T01:56:39;10.30;86.40
2539;DHT22;1280;49.760;9.664;2023-03-09T01:59:21;10.30;86.40
2539;DHT22;1280;49.760;9.664;2023-03-09T02:01:51;10.40;86.30
2539;DHT22;1280;49.760;9.664;2023-03-09T02:04:26;10.40;86.10
2539;DHT22;1280;49.760;9.664;2023-03-09T02:07:10;10.30;86.20
2539;DHT22;1280;49.760;9.664;2023-03-09T02:09:48;10.30;86.20
2539;DHT22;1280;49.760;9.664;2023-03-09T02:12:26;10.20;86.30
2539;DHT22;1280;49.760;9.664;2023-03-09T02:15:09;10.30;86.30
2539;DHT22;1280;49.760;9.664;2023-03-09T02:17:42;10.30;86.30
2539;DHT22;1280;49.760;9.664;2023-03-09T02:20:19;10.30;86.20
2539;DHT22;1280;49.760;9.664;2023-03-09T02:23:04;10.20;86.40
2539;DHT22;1280;49.760;9.664;2023-03-09T02:25:46;10.20;86.40
2539;DHT22;1280;49.760;9.664;2023-03-09T02:28:34;10.20;86.40
2539;DHT22;1280;49.760;9.664;2023-03-09T02:31:10;10.20;86.40
2539;DHT22;1280;49.760;9.664;2023-03-09T02:33:44;10.20;86.40
2539;DHT22;1280;49.760;9.664;2023-03-09T02:36:14;10.20;86.30
2539;DHT22;1280;49.760;9.664;2023-03-09T02:38:49;10.30;86.40
2539;DHT22;1280;49.760;9.664;2023-03-09T02:41:22;10.20;86.30
2539;DHT22;1280;49.760;9.664;2023-03-09T02:44:01;10.20;86.40
2539;DHT22;1280;49.760;9.664;2023-03-09T02:46:38;10.20;86.50
2539;DHT22;1280;49.760;9.664;2023-03-09T02:49:18;10.20;86.40
2539;DHT22;1280;49.760;9.664;2023-03-09T02:51:48;10.20;86.50
2539;DHT22;1280;49.760;9.664;2023-03-09T02:54:31;10.20;86.50
2539;DHT22;1280;49.760;9.664;2023-03-09T02:57:07;10.20;86.50
2539;DHT22;1280;49.760;9.664;2023-03-09T02:59:41;10.20;86.50
2539;DHT22;1280;49.760;9.664;2023-03-09T03:02:13;10.20;86.60
2539;DHT22;1280;49.760;9.664;2023-03-09T03:04:42;10.20;86.60
2539;DHT22;1280;49.760;9.664;2023-03-09T03:07:21;10.30;86.50
2539;DHT22;1280;49.760;9.664;2023-03-09T03:09:55;10.20;86.50
2539;DHT22;1280;49.760;9.664;2023-03-09T03:12:32;10.20;86.50
2539;DHT22;1280;49.760;9.664;2023-03-09T03:15:09;10.30;86.40
2539;DHT22;1280;49.760;9.664;2023-03-09T03:17:39;10.30;86.30
2539;DHT22;1280;49.760;9.664;2023-03-09T03:20:12;10.40;86.10
2539;DHT22;1280;49.760;9.664;2023-03-09T03:22:48;10.30;86.30
2539;DHT22;1280;49.760;9.664;2023-03-09T03:25:35;10.30;86.40
2539;DHT22;1280;49.760;9.664;2023-03-09T03:28:14;10.30;86.10
2539;DHT22;1280;49.760;9.664;2023-03-09T03:31:02;10.20;86.20
2539;DHT22;1280;49.760;9.664;2023-03-09T03:33:32;10.20;86.30
2539;DHT22;1280;49.760;9.664;2023-03-09T03:36:02;10.20;86.10
2539;DHT22;1280;49.760;9.664;2023-03-09T03:38:41;10.20;86.10
2539;DHT22;1280;49.760;9.664;2023-03-09T03:41:14;10.20;86.00
2539;DHT22;1280;49.760;9.664;2023-03-09T03:43:52;10.20;86.20
2539;DHT22;1280;49.760;9.664;2023-03-09T03:46:28;10.20;86.10
2539;DHT22;1280;49.760;9.664;2023-03-09T03:49:02;10.20;85.90
2539;DHT22;1280;49.760;9.664;2023-03-09T03:51:38;10.20;85.90
2539;DHT22;1280;49.760;9.664;2023-03-09T03:54:14;10.10;86.10
2539;DHT22;1280;49.760;9.664;2023-03-09T03:56:52;10.10;86.00
2539;DHT22;1280;49.760;9.664;2023-03-09T03:59:23;10.10;86.10
2539;DHT22;1280;49.760;9.664;2023-03-09T04:02:04;10.10;86.00
2539;DHT22;1280;49.760;9.664;2023-03-09T04:04:40;10.10;86.00
2539;DHT22;1280;49.760;9.664;2023-03-09T04:07:22;10.10;86.00
2539;DHT22;1280;49.760;9.664;2023-03-09T04:09:55;10.10;85.90
2539;DHT22;1280;49.760;9.664;2023-03-09T04:12:38;10.10;86.00
2539;DHT22;1280;49.760;9.664;2023-03-09T04:15:20;10.10;85.90
2539;DHT22;1280;49.760;9.664;2023-03-09T04:18:00;10.10;85.90
2539;DHT22;1280;49.760;9.664;2023-03-09T04:20:33;10.10;85.80
2539;DHT22;1280;49.760;9.664;2023-03-09T04:23:04;10.10;85.60
2539;DHT22;1280;49.760;9.664;2023-03-09T04:25:41;10.10;85.80
2539;DHT22;1280;49.760;9.664;2023-03-09T04:28:15;10.10;85.70
2539;DHT22;1280;49.760;9.664;2023-03-09T04:30:50;10.10;85.80
2539;DHT22;1280;49.760;9.664;2023-03-09T04:33:34;10.10;85.80
2539;DHT22;1280;49.760;9.664;2023-03-09T04:36:16;10.20;85.80
2539;DHT22;1280;49.760;9.664;2023-03-09T04:38:49;10.20;85.80
2539;DHT22;1280;49.760;9.664;2023-03-09T04:41:33;10.20;85.80
2539;DHT22;1280;49.760;9.664;2023-03-09T04:44:08;10.20;85.80
2539;DHT22;1280;49.760;9.664;2023-03-09T04:46:45;10.20;85.90
2539;DHT22;1280;49.760;9.664;2023-03-09T04:49:22;10.20;85.90
2539;DHT22;1280;49.760;9.664;2023-03-09T04:51:57;10.30;85.80
2539;DHT22;1280;49.760;9.664;2023-03-09T04:54:38;10.20;85.90
2539;DHT22;1280;49.760;9.664;2023-03-09T04:57:09;10.30;85.90
2539;DHT22;1280;49.760;9.664;2023-03-09T04:59:48;10.30;85.80
2539;DHT22;1280;49.760;9.664;2023-03-09T05:02:22;10.40;85.70
2539;DHT22;1280;49.760;9.664;2023-03-09T05:04:53;10.40;85.70
2539;DHT22;1280;49.760;9.664;2023-03-09T05:07:33;10.40;85.90
2539;DHT22;1280;49.760;9.664;2023-03-09T05:10:11;10.40;85.90
2539;DHT22;1280;49.760;9.664;2023-03-09T05:12:47;10.40;85.80
2539;DHT22;1280;49.760;9.664;2023-03-09T05:15:28;10.30;86.00
2539;DHT22;1280;49.760;9.664;2023-03-09T05:18:06;10.40;85.90
2539;DHT22;1280;49.760;9.664;2023-03-09T05:20:45;10.40;85.90
2539;DHT22;1280;49.760;9.664;2023-03-09T05:23:24;10.40;86.00
2539;DHT22;1280;49.760;9.664;2023-03-09T05:26:00;10.40;86.00
2539;DHT22;1280;49.760;9.664;2023-03-09T05:28:38;10.50;85.80
2539;DHT22;1280;49.760;9.664;2023-03-09T05:31:13;10.50;85.80
2539;DHT22;1280;49.760;9.664;2023-03-09T05:33:48;10.50;85.90
2539;DHT22;1280;49.760;9.664;2023-03-09T05:36:26;10.50;85.80
2539;DHT22;1280;49.760;9.664;2023-03-09T05:39:28;10.50;85.90
2539;DHT22;1280;49.760;9.664;2023-03-09T05:42:08;10.50;85.90
2539;DHT22;1280;49.760;9.664;2023-03-09T05:44:44;10.50;86.00
2539;DHT22;1280;49.760;9.664;2023-03-09T05:47:17;10.50;85.90
2539;DHT22;1280;49.760;9.664;2023-03-09T05:49:49;10.50;85.80
2539;DHT22;1280;49.760;9.664;2023-03-09T05:52:25;10.50;85.70
2539;DHT22;1280;49.760;9.664;2023-03-09T05:55:00;10.50;85.80
2539;DHT22;1280;49.760;9.664;2023-03-09T05:57:44;10.50;85.80
2539;DHT22;1280;49.760;9.664;2023-03-09T06:00:25;10.50;85.60
2539;DHT22;1280;49.760;9.664;2023-03-09T06:02:59;10.50;85.60
2539;DHT22;1280;49.760;9.664;2023-03-09T06:05:43;10.50;85.60
2539;DHT22;1280;49.760;9.664;2023-03-09T06:08:19;10.50;85.60
2539;DHT22;1280;49.760;9.664;2023-03-09T06:10:52;10.50;85.60
2539;DHT22;1280;49.760;9.664;2023-03-09T06:13:24;10.50;85.50
2539;DHT22;1280;49.760;9.664;2023-03-09T06:15:58;10.50;85.60
2539;DHT22;1280;49.760;9.664;2023-03-09T06:18:31;10.50;85.40
2539;DHT22;1280;49.760;9.664;2023-03-09T06:21:05;10.60;85.30
2539;DHT22;1280;49.760;9.664;2023-03-09T06:23:43;10.50;85.30
2539;DHT22;1280;49.760;9.664;2023-03-09T06:26:20;10.50;85.40
2539;DHT22;1280;49.760;9.664;2023-03-09T06:28:55;10.50;85.50
2539;DHT22;1280;49.760;9.664;2023-03-09T06:31:31;10.50;85.50
2539;DHT22;1280;49.760;9.664;2023-03-09T06:34:14;10.60;85.30
2539;DHT22;1280;49.760;9.664;2023-03-09T06:36:47;10.60;85.20
2539;DHT22;1280;49.760;9.664;2023-03-09T06:39:28;10.50;85.20
2539;DHT22;1280;49.760;9.664;2023-03-09T06:42:01;10.60;85.00
2539;DHT22;1280;49.760;9.664;2023-03-09T06:44:47;10.60;85.00
2539;DHT22;1280;49.760;9.664;2023-03-09T06:47:25;10.60;84.90
2539;DHT22;1280;49.760;9.664;2023-03-09T06:50:06;10.60;84.80
2539;DHT22;1280;49.760;9.664;2023-03-09T06:52:40;10.60;84.90
2539;DHT22;1280;49.760;9.664;2023-03-09T06:55:21;10.50;84.90
2539;DHT22;1280;49.760;9.664;2023-03-09T06:57:58;10.60;84.90
2539;DHT22;1280;49.760;9.664;2023-03-09T07:00:27;10.60;84.60
2539;DHT22;1280;49.760;9.664;2023-03-09T07:03:03;10.50;84.80
2539;DHT22;1280;49.760;9.664;2023-03-09T07:05:34;10.60;84.70
2539;DHT22;1280;49.760;9.664;2023-03-09T07:08:09;10.60;84.60
2539;DHT22;1280;49.760;9.664;2023-03-09T07:10:48;10.60;84.70
2539;DHT22;1280;49.760;9.664;2023-03-09T07:13:28;10.60;84.70
2539;DHT22;1280;49.760;9.664;2023-03-09T07:16:03;10.60;84.60
2539;DHT22;1280;49.760;9.664;2023-03-09T07:18:42;10.60;84.60
2539;DHT22;1280;49.760;9.664;2023-03-09T07:21:16;10.60;84.40
2539;DHT22;1280;49.760;9.664;2023-03-09T07:23:47;10.50;84.70
2539;DHT22;1280;49.760;9.664;2023-03-09T07:26:23;10.60;84.60
2539;DHT22;1280;49.760;9.664;2023-03-09T07:29:02;10.60;84.60
2539;DHT22;1280;49.760;9.664;2023-03-09T07:31:35;10.60;84.60
2539;DHT22;1280;49.760;9.664;2023-03-09T07:34:06;10.50;84.80
2539;DHT22;1280;49.760;9.664;2023-03-09T07:36:39;10.40;84.90
2539;DHT22;1280;49.760;9.664;2023-03-09T07:39:19;10.40;84.90
2539;DHT22;1280;49.760;9.664;2023-03-09T07:41:52;10.40;85.00
2539;DHT22;1280;49.760;9.664;2023-03-09T07:44:26;10.40;85.10
2539;DHT22;1280;49.760;9.664;2023-03-09T07:46:55;10.40;85.00
2539;DHT22;1280;49.760;9.664;2023-03-09T07:49:29;10.40;85.10
2539;DHT22;1280;49.760;9.664;2023-03-09T07:52:10;10.50;85.10
2539;DHT22;1280;49.760;9.664;2023-03-09T07:54:51;10.50;85.00
2539;DHT22;1280;49.760;9.664;2023-03-09T07:57:23;10.50;85.10
2539;DHT22;1280;49.760;9.664;2023-03-09T07:59:56;10.60;85.10
2539;DHT22;1280;49.760;9.664;2023-03-09T08:02:56;10.50;85.40
2539;DHT22;1280;49.760;9.664;2023-03-09T08:05:28;10.50;85.50
2539;DHT22;1280;49.760;9.664;2023-03-09T08:08:08;10.60;85.40
2539;DHT22;1280;49.760;9.664;2023-03-09T08:10:50;10.60;85.30
2539;DHT22;1280;49.760;9.664;2023-03-09T08:13:25;10.70;85.30
2539;DHT22;1280;49.760;9.664;2023-03-09T08:16:01;10.70;85.30
2539;DHT22;1280;49.760;9.664;2023-03-09T08:18:32;10.80;85.10
2539;DHT22;1280;49.760;9.664;2023-03-09T08:21:04;10.80;85.30
2539;DHT22;1280;49.760;9.664;2023-03-09T08:23:42;10.80;85.30
2539;DHT22;1280;49.760;9.664;2023-03-09T08:26:17;10.80;85.10
2539;DHT22;1280;49.760;9.664;2023-03-09T08:28:57;10.90;84.90
2539;DHT22;1280;49.760;9.664;2023-03-09T08:31:39;10.90;84.90
2539;DHT22;1280;49.760;9.664;2023-03-09T08:34:11;10.80;84.90
2539;DHT22;1280;49.760;9.664;2023-03-09T08:36:43;10.80;84.90
2539;DHT22;1280;49.760;9.664;2023-03-09T08:39:20;10.80;85.20
2539;DHT22;1280;49.760;9.664;2023-03-09T08:41:50;10.80;85.00
2539;DHT22;1280;49.760;9.664;2023-03-09T08:44:22;10.90;85.00
2539;DHT22;1280;49.760;9.664;2023-03-09T08:46:52;10.80;85.20
2539;DHT22;1280;49.760;9.664;2023-03-09T08:49:22;10.90;85.40
2539;DHT22;1280;49.760;9.664;2023-03-09T08:51:56;11.00;85.00
2539;DHT22;1280;49.760;9.664;2023-03-09T08:54:37;11.10;85.20
2539;DHT22;1280;49.760;9.664;2023-03-09T08:57:09;11.10;85.10
2539;DHT22;1280;49.760;9.664;2023-03-09T08:59:47;11.10;85.10
2539;DHT22;1280;49.760;9.664;2023-03-09T09:02:21;11.20;84.80
2539;DHT22;1280;49.760;9.664;2023-03-09T09:05:05;11.20;84.50
2539;DHT22;1280;49.760;9.664;2023-03-09T09:07:41;11.10;84.60
2539;DHT22;1280;49.760;9.664;2023-03-09T09:10:15;11.20;84.50
2539;DHT22;1280;49.760;9.664;2023-03-09T09:13:05;11.20;84.40
2539;DHT22;1280;49.760;9.664;2023-03-09T09:15:40;11.20;84.40
2539;DHT22;1280;49.760;9.664;2023-03-09T09:18:17;11.20;84.40
2539;DHT22;1280;49.760;9.664;2023-03-09T09:21:02;11.20;84.40
2539;DHT22;1280;49.760;9.664;2023-03-09T09:23:47;11.20;84.30
2539;DHT22;1280;49.760;9.664;2023-03-09T09:26:22;11.20;84.40
2539;DHT22;1280;49.760;9.664;2023-03-09T09:28:59;11.10;84.40
2539;DHT22;1280;49.760;9.664;2023-03-09T09:31:50;11.20;84.30
2539;DHT22;1280;49.760;9.664;2023-03-09T09:34:28;11.20;84.10
2539;DHT22;1280;49.760;9.664;2023-03-09T09:37:03;11.10;84.30
2539;DHT22;1280;49.760;9.664;2023-03-09T09:39:35;11.10;84.30
2539;DHT22;1280;49.760;9.664;2023-03-09T09:42:19;11.20;84.20
2539;DHT22;1280;49.760;9.664;2023-03-09T09:44:57;11.10;84.20
2539;DHT22;1280;49.760;9.664;2023-03-09T09:47:41;11.10;84.40
2539;DHT22;1280;49.760;9.664;2023-03-09T09:50:15;11.10;84.40
2539;DHT22;1280;49.760;9.664;2023-03-09T09:52:53;10.90;84.80
2539;DHT22;1280;49.760;9.664;2023-03-09T09:55:33;10.90;84.70
2539;DHT22;1280;49.760;9.664;2023-03-09T09:58:14;10.90;84.90
2539;DHT22;1280;49.760;9.664;2023-03-09T10:00:53;10.90;84.90
2539;DHT22;1280;49.760;9.664;2023-03-09T10:03:48;10.90;84.90
2539;DHT22;1280;49.760;9.664;2023-03-09T10:06:23;10.90;84.90
2539;DHT22;1280;49.760;9.664;2023-03-09T10:09:10;10.90;85.00
2539;DHT22;1280;49.760;9.664;2023-03-09T10:11:51;11.00;85.10
2539;DHT22;1280;49.760;9.664;2023-03-09T10:14:27;11.00;85.20
2539;DHT22;1280;49.760;9.664;2023-03-09T10:17:09;10.90;85.30
2539;DHT22;1280;49.760;9.664;2023-03-09T10:19:53;11.00;85.30
2539;DHT22;1280;49.760;9.664;2023-03-09T10:22:25;11.00;85.20
2539;DHT22;1280;49.760;9.664;2023-03-09T10:24:59;11.00;85.30
2539;DHT22;1280;49.760;9.664;2023-03-09T10:27:41;11.00;85.30
2539;DHT22;1280;49.760;9.664;2023-03-09T10:30:30;11.10;85.20
2539;DHT22;1280;49.760;9.664;2023-03-09T10:33:12;11.00;85.40
2539;DHT22;1280;49.760;9.664;2023-03-09T10:35:58;11.00;85.50
2539;DHT22;1280;49.760;9.664;2023-03-09T10:38:38;11.00;85.60
2539;DHT22;1280;49.760;9.664;2023-03-09T10:41:16;11.20;85.40
2539;DHT22;1280;49.760;9.664;2023-03-09T10:43:58;11.20;85.40
2539;DHT22;1280;49.760;9.664;2023-03-09T10:46:29;11.10;85.60
2539;DHT22;1280;49.760;9.664;2023-03-09T10:49:14;11.20;85.60
2539;DHT22;1280;49.760;9.664;2023-03-09T10:52:05;11.20;85.70
2539;DHT22;1280;49.760;9.664;2023-03-09T10:54:38;11.30;85.50
2539;DHT22;1280;49.760;9.664;2023-03-09T10:57:23;11.20;85.50
2539;DHT22;1280;49.760;9.664;2023-03-09T11:00:10;11.30;85.50
2539;DHT22;1280;49.760;9.664;2023-03-09T11:02:58;11.30;85.50
2539;DHT22;1280;49.760;9.664;2023-03-09T11:05:34;11.30;85.70
2539;DHT22;1280;49.760;9.664;2023-03-09T11:08:22;11.40;85.60
2539;DHT22;1280;49.760;9.664;2023-03-09T11:11:05;11.50;85.40
2539;DHT22;1280;49.760;9.664;2023-03-09T11:13:41;11.50;85.40
2539;DHT22;1280;49.760;9.664;2023-03-09T11:16:21;11.50;85.10
2539;DHT22;1280;49.760;9.664;2023-03-09T11:19:13;11.50;85.20
2539;DHT22;1280;49.760;9.664;2023-03-09T11:21:52;11.60;85.00
2539;DHT22;1280;49.760;9.664;2023-03-09T11:24:42;11.60;85.10
2539;DHT22;1280;49.760;9.664;2023-03-09T11:27:21;11.70;85.00
2539;DHT22;1280;49.760;9.664;2023-03-09T11:30:05;11.70;84.90
2539;DHT22;1280;49.760;9.664;2023-03-09T11:32:39;11.70;84.90
2539;DHT22;1280;49.760;9.664;2023-03-09T11:35:17;11.70;85.00
2539;DHT22;1280;49.760;9.664;2023-03-09T11:38:00;11.70;85.00
2539;DHT22;1280;49.760;9.664;2023-03-09T11:40:37;11.70;85.00
2539;DHT22;1280;49.760;9.664;2023-03-09T11:43:17;11.70;84.80
2539;DHT22;1280;49.760;9.664;2023-03-09T11:46:02;11.70;84.80
2539;DHT22;1280;49.760;9.664;2023-03-09T11:48:42;11.80;84.80
2539;DHT22;1280;49.760;9.664;2023-03-09T11:51:18;11.80;84.70
2539;DHT22;1280;49.760;9.664;2023-03-09T11:53:58;11.80;84.70
2539;DHT22;1280;49.760;9.664;2023-03-09T11:56:35;11.80;84.60
2539;DHT22;1280;49.760;9.664;2023-03-09T11:59:13;11.80;84.60
2539;DHT22;1280;49.760;9.664;2023-03-09T12:01:50;11.80;84.60
2539;DHT22;1280;49.760;9.664;2023-03-09T12:04:22;11.80;84.60
2539;DHT22;1280;49.760;9.664;2023-03-09T12:06:56;11.80;84.50
2539;DHT22;1280;49.760;9.664;2023-03-09T12:09:49;11.90;84.50
2539;DHT22;1280;49.760;9.664;2023-03-09T12:12:48;11.90;84.50
2539;DHT22;1280;49.760;9.664;2023-03-09T12:15:24;11.90;84.60
2539;DHT22;1280;49.760;9.664;2023-03-09T12:18:01;11.90;84.60
2539;DHT22;1280;49.760;9.664;2023-03-09T12:20:39;12.00;84.40
2539;DHT22;1280;49.760;9.664;2023-03-09T12:23:48;12.10;84.30
2539;DHT22;1280;49.760;9.664;2023-03-09T12:26:28;12.10;84.60
2539;DHT22;1280;49.760;9.664;2023-03-09T12:29:20;12.20;84.70
2539;DHT22;1280;49.760;9.664;2023-03-09T12:32:32;12.20;84.60
2539;DHT22;1280;49.760;9.664;2023-03-09T12:35:10;12.30;84.50
2539;DHT22;1280;49.760;9.664;2023-03-09T12:38:16;12.30;84.40
2539;DHT22;1280;49.760;9.664;2023-03-09T12:40:51;12.30;84.40
2539;DHT22;1280;49.760;9.664;2023-03-09T12:43:46;12.30;84.30
2539;DHT22;1280;49.760;9.664;2023-03-09T12:49:34;12.30;84.10
2539;DHT22;1280;49.760;9.664;2023-03-09T12:52:49;12.40;83.80
2539;DHT22;1280;49.760;9.664;2023-03-09T12:55:46;12.50;83.60
2539;DHT22;1280;49.760;9.664;2023-03-09T12:58:40;12.40;83.70
2539;DHT22;1280;49.760;9.664;2023-03-09T13:01:11;12.50;83.60
2539;DHT22;1280;49.760;9.664;2023-03-09T13:04:12;12.60;83.50
2539;DHT22;1280;49.760;9.664;2023-03-09T13:06:58;12.60;83.70
2539;DHT22;1280;49.760;9.664;2023-03-09T13:09:51;12.60;83.60
2539;DHT22;1280;49.760;9.664;2023-03-09T13:12:30;12.70;83.50
2539;DHT22;1280;49.760;9.664;2023-03-09T13:18:28;12.70;83.50
2539;DHT22;1280;49.760;9.664;2023-03-09T13:24:20;12.90;83.00
2539;DHT22;1280;49.760;9.664;2023-03-09T13:27:01;12.90;82.50
2539;DHT22;1280;49.760;9.664;2023-03-09T13:29:42;12.90;82.40
2539;DHT22;1280;49.760;9.664;2023-03-09T13:32:23;12.90;82.40
2539;DHT22;1280;49.760;9.664;2023-03-09T13:35:14;12.90;82.10
2539;DHT22;1280;49.760;9.664;2023-03-09T13:37:44;12.90;82.10
2539;DHT22;1280;49.760;9.664;2023-03-09T13:40:31;12.90;81.90
2539;DHT22;1280;49.760;9.664;2023-03-09T13:43:13;13.00;81.60
2539;DHT22;1280;49.760;9.664;2023-03-09T13:46:02;12.90;81.60
2539;DHT22;1280;49.760;9.664;2023-03-09T13:48:40;12.80;81.40
2539;DHT22;1280;49.760;9.664;2023-03-09T13:51:36;12.80;81.40
2539;DHT22;1280;49.760;9.664;2023-03-09T13:54:24;12.70;81.40
2539;DHT22;1280;49.760;9.664;2023-03-09T13:57:18;12.70;81.40
2539;DHT22;1280;49.760;9.664;2023-03-09T13:59:59;12.70;81.30
2539;DHT22;1280;49.760;9.664;2023-03-09T14:02:49;12.70;81.40
2539;DHT22;1280;49.760;9.664;2023-03-09T14:05:23;12.70;81.30
2539;DHT22;1280;49.760;9.664;2023-03-09T14:08:20;12.70;81.10
2539;DHT22;1280;49.760;9.664;2023-03-09T14:10:56;12.70;81.20
2539;DHT22;1280;49.760;9.664;2023-03-09T14:13:49;12.70;81.30
2539;DHT22;1280;49.760;9.664;2023-03-09T14:16:27;12.80;81.10
2539;DHT22;1280;49.760;9.664;2023-03-09T14:19:20;12.70;81.10
2539;DHT22;1280;49.760;9.664;2023-03-09T14:21:53;12.70;81.20
2539;DHT22;1280;49.760;9.664;2023-03-09T14:24:35;12.80;81.20
2539;DHT22;1280;49.760;9.664;2023-03-09T14:27:22;12.80;81.50
2539;DHT22;1280;49.760;9.664;2023-03-09T14:30:34;12.90;81.60
2539;DHT22;1280;49.760;9.664;2023-03-09T14:33:28;13.10;81.50
2539;DHT22;1280;49.760;9.664;2023-03-09T14:36:15;13.20;81.50
2539;DHT22;1280;49.760;9.664;2023-03-09T14:38:55;13.20;81.40
2539;DHT22;1280;49.760;9.664;2023-03-09T14:41:31;13.40;81.00
2539;DHT22;1280;49.760;9.664;2023-03-09T14:44:26;13.30;80.60
2539;DHT22;1280;49.760;9.664;2023-03-09T14:47:02;13.40;80.40
2539;DHT22;1280;49.760;9.664;2023-03-09T14:49:40;13.40;80.30
2539;DHT22;1280;49.760;9.664;2023-03-09T14:52:15;13.30;80.30
2539;DHT22;1280;49.760;9.664;2023-03-09T14:54:52;13.30;80.20
2539;DHT22;1280;49.760;9.664;2023-03-09T14:57:32;13.30;80.30
2539;DHT22;1280;49.760;9.664;2023-03-09T15:00:16;13.30;80.10
2539;DHT22;1280;49.760;9.664;2023-03-09T15:03:08;13.30;80.10
2539;DHT22;1280;49.760;9.664;2023-03-09T15:05:43;13.30;80.30
2539;DHT22;1280;49.760;9.664;2023-03-09T15:08:16;13.30;80.10
2539;DHT22;1280;49.760;9.664;2023-03-09T15:10:48;13.30;80.00
2539;DHT22;1280;49.760;9.664;2023-03-09T15:13:20;13.30;80.00
2539;DHT22;1280;49.760;9.664;2023-03-09T15:15:56;13.30;80.00
2539;DHT22;1280;49.760;9.664;2023-03-09T15:18:32;13.30;79.90
2539;DHT22;1280;49.760;9.664;2023-03-09T15:21:11;13.20;79.90
2539;DHT22;1280;49.760;9.664;2023-03-09T15:23:46;13.20;80.00
2539;DHT22;1280;49.760;9.664;2023-03-09T15:26:25;13.20;79.90
2539;DHT22;1280;49.760;9.664;2023-03-09T15:29:06;13.20;79.80
2539;DHT22;1280;49.760;9.664;2023-03-09T15:31:37;13.30;79.70
2539;DHT22;1280;49.760;9.664;2023-03-09T15:34:21;13.20;79.60
2539;DHT22;1280;49.760;9.664;2023-03-09T15:36:59;13.20;79.60
2539;DHT22;1280;49.760;9.664;2023-03-09T15:39:35;13.20;79.60
2539;DHT22;1280;49.760;9.664;2023-03-09T15:42:12;13.20;79.20
2539;DHT22;1280;49.760;9.664;2023-03-09T15:44:51;13.20;79.20
2539;DHT22;1280;49.760;9.664;2023-03-09T15:47:26;13.10;79.10
2539;DHT22;1280;49.760;9.664;2023-03-09T15:50:05;13.10;79.00
2539;DHT22;1280;49.760;9.664;2023-03-09T15:52:46;13.10;78.80
2539;DHT22;1280;49.760;9.664;2023-03-09T15:55:19;12.90;79.00
2539;DHT22;1280;49.760;9.664;2023-03-09T15:57:59;12.90;79.00
2539;DHT22;1280;49.760;9.664;2023-03-09T16:00:38;12.80;78.90
2539;DHT22;1280;49.760;9.664;2023-03-09T16:03:10;12.80;79.00
2539;DHT22;1280;49.760;9.664;2023-03-09T16:05:50;12.80;79.00
2539;DHT22;1280;49.760;9.664;2023-03-09T16:08:23;12.80;79.00
2539;DHT22;1280;49.760;9.664;2023-03-09T16:10:53;12.80;78.90
2539;DHT22;1280;49.760;9.664;2023-03-09T16:13:27;12.90;78.90
2539;DHT22;1280;49.760;9.664;2023-03-09T16:15:59;12.90;78.80
2539;DHT22;1280;49.760;9.664;2023-03-09T16:18:31;12.90;78.80
2539;DHT22;1280;49.760;9.664;2023-03-09T16:21:11;12.90;78.60
2539;DHT22;1280;49.760;9.664;2023-03-09T16:23:46;12.90;78.60
2539;DHT22;1280;49.760;9.664;2023-03-09T16:26:18;12.90;78.60
2539;DHT22;1280;49.760;9.664;2023-03-09T16:28:48;12.80;78.60
2539;DHT22;1280;49.760;9.664;2023-03-09T16:31:21;12.90;78.60
2539;DHT22;1280;49.760;9.664;2023-03-09T16:33:57;12.90;78.60
2539;DHT22;1280;49.760;9.664;2023-03-09T16:36:43;12.80;78.70
2539;DHT22;1280;49.760;9.664;2023-03-09T16:39:17;12.90;78.80
2539;DHT22;1280;49.760;9.664;2023-03-09T16:42:04;13.00;78.60
2539;DHT22;1280;49.760;9.664;2023-03-09T16:44:46;13.00;78.70
2539;DHT22;1280;49.760;9.664;2023-03-09T16:47:25;13.10;78.50
2539;DHT22;1280;49.760;9.664;2023-03-09T16:50:02;13.10;78.50
2539;DHT22;1280;49.760;9.664;2023-03-09T16:52:35;13.10;78.50
2539;DHT22;1280;49.760;9.664;2023-03-09T16:55:12;13.10;78.50
2539;DHT22;1280;49.760;9.664;2023-03-09T16:58:17;13.20;78.30
2539;DHT22;1280;49.760;9.664;2023-03-09T17:00:52;13.20;78.20
2539;DHT22;1280;49.760;9.664;2023-03-09T17:03:36;13.20;78.10
2539;DHT22;1280;49.760;9.664;2023-03-09T17:06:21;13.20;78.00
2539;DHT22;1280;49.760;9.664;2023-03-09T17:08:53;13.20;78.00
2539;DHT22;1280;49.760;9.664;2023-03-09T17:11:25;13.20;77.90
2539;DHT22;1280;49.760;9.664;2023-03-09T17:14:00;13.20;77.90
2539;DHT22;1280;49.760;9.664;2023-03-09T17:16:37;13.20;78.00
2539;DHT22;1280;49.760;9.664;2023-03-09T17:19:13;13.20;77.90
2539;DHT22;1280;49.760;9.664;2023-03-09T17:21:47;13.20;77.90
2539;DHT22;1280;49.760;9.664;2023-03-09T17:24:20;13.20;77.70
2539;DHT22;1280;49.760;9.664;2023-03-09T17:26:53;13.20;77.90
2539;DHT22;1280;49.760;9.664;2023-03-09T17:29:21;13.20;77.80